createdAt,value
2022-11-20T00:00:32.568Z,97314.72
2022-11-20T00:03:18.554Z,97311.51
2022-11-20T00:05:46.625Z,97298.28
2022-11-20T00:08:15.006Z,97294.35
2022-11-20T00:10:42.875Z,97291.00
2022-11-20T00:13:11.460Z,97287.83
2022-11-20T00:15:39.431Z,97287.40
2022-11-20T00:18:07.293Z,97289.86
2022-11-20T00:20:35.265Z,97291.81
2022-11-20T00:23:03.433Z,97297.11
2022-11-20T00:25:31.220Z,97300.04
2022-11-20T00:27:59.067Z,97305.19
2022-11-20T00:30:26.906Z,97309.70
2022-11-20T00:32:57.365Z,97313.84
2022-11-20T00:35:25.227Z,97313.45
2022-11-20T00:37:53.198Z,97307.50
2022-11-20T00:40:21.069Z,97299.90
2022-11-20T00:42:48.931Z,97291.45
2022-11-20T00:45:16.905Z,97282.80
2022-11-20T00:47:44.771Z,97280.67
2022-11-20T00:50:12.742Z,97280.59
2022-11-20T00:52:40.593Z,97280.09
2022-11-20T00:55:08.476Z,97277.71
2022-11-20T00:57:36.441Z,97273.00
2022-11-20T01:00:04.627Z,97263.20
2022-11-20T01:02:32.486Z,97259.65
2022-11-20T01:05:00.453Z,97261.23
2022-11-20T01:07:28.410Z,97255.88
2022-11-20T01:09:56.209Z,97252.08
2022-11-20T01:12:24.053Z,97249.89
2022-11-20T01:14:51.885Z,97249.13
2022-11-20T01:17:19.853Z,97252.27
2022-11-20T01:19:50.489Z,97253.04
2022-11-20T01:22:18.388Z,97243.38
2022-11-20T01:24:46.259Z,97240.21
2022-11-20T01:27:14.228Z,97238.61
2022-11-20T01:29:42.192Z,97236.35
2022-11-20T01:32:10.166Z,97231.48
2022-11-20T01:34:38.028Z,97233.79
2022-11-20T01:37:05.897Z,97232.14
2022-11-20T01:39:33.844Z,97230.83
2022-11-20T01:42:20.286Z,97232.40
2022-11-20T01:45:11.588Z,97232.23
2022-11-20T01:47:45.971Z,97223.13
2022-11-20T01:50:19.610Z,97217.35
2022-11-20T01:52:50.498Z,97207.70
2022-11-20T01:55:23.439Z,97202.48
2022-11-20T01:57:51.807Z,97195.19
2022-11-20T02:00:20.906Z,97188.45
2022-11-20T02:02:51.129Z,97185.33
2022-11-20T02:05:19.006Z,97186.02
2022-11-20T02:07:47.891Z,97182.69
2022-11-20T02:10:16.174Z,97180.14
2022-11-20T02:13:02.980Z,97179.61
2022-11-20T02:15:30.942Z,97177.66
2022-11-20T02:17:58.811Z,97173.48
2022-11-20T02:20:26.983Z,97169.89
2022-11-20T02:23:05.916Z,97165.63
2022-11-20T02:25:34.905Z,97161.49
2022-11-20T02:28:03.282Z,97148.76
2022-11-20T02:30:31.173Z,97143.92
2022-11-20T02:32:59.333Z,97136.91
2022-11-20T02:35:27.107Z,97134.83
2022-11-20T02:37:56.085Z,97131.73
2022-11-20T02:40:24.359Z,97131.90
2022-11-20T02:42:56.425Z,97136.58
2022-11-20T02:45:25.115Z,97133.80
2022-11-20T02:47:53.407Z,97128.66
2022-11-20T02:50:21.275Z,97128.64
2022-11-20T02:52:49.104Z,97125.52
2022-11-20T02:55:17.096Z,97119.95
2022-11-20T02:57:45.066Z,97121.40
2022-11-20T03:00:13.537Z,97116.80
2022-11-20T03:02:41.511Z,97114.85
2022-11-20T03:05:09.487Z,97122.98
2022-11-20T03:07:37.401Z,97117.36
2022-11-20T03:10:05.937Z,97111.74
2022-11-20T03:12:33.749Z,97109.83
2022-11-20T03:15:01.770Z,97112.13
2022-11-20T03:17:30.763Z,97108.37
2022-11-20T03:19:58.630Z,97098.55
2022-11-20T03:22:26.497Z,97093.50
2022-11-20T03:24:54.465Z,97087.20
2022-11-20T03:27:22.334Z,97073.82
2022-11-20T03:29:50.204Z,97063.98
2022-11-20T03:32:18.070Z,97059.42
2022-11-20T03:34:46.036Z,97054.77
2022-11-20T03:37:14.111Z,97054.12
2022-11-20T03:39:41.974Z,97058.41
2022-11-20T03:42:30.322Z,97063.37
2022-11-20T03:44:58.197Z,97059.48
2022-11-20T03:47:26.058Z,97053.45
2022-11-20T03:49:53.924Z,97056.48
2022-11-20T03:52:21.897Z,97054.54
2022-11-20T03:54:49.713Z,97045.42
2022-11-20T03:57:17.628Z,97046.98
2022-11-20T03:59:45.508Z,97051.45
2022-11-20T04:02:13.515Z,97052.81
2022-11-20T04:04:41.638Z,97059.52
2022-11-20T04:07:09.862Z,97067.67
2022-11-20T04:09:37.889Z,97078.09
2022-11-20T04:12:05.752Z,97085.45
2022-11-20T04:14:33.623Z,97080.60
2022-11-20T04:17:01.490Z,97071.64
2022-11-20T04:19:29.353Z,97058.01
2022-11-20T04:21:57.220Z,97049.48
2022-11-20T04:24:25.101Z,97047.12
2022-11-20T04:26:53.062Z,97034.90
2022-11-20T04:29:21.415Z,97019.77
2022-11-20T04:31:49.615Z,97016.87
2022-11-20T04:34:17.483Z,97005.10
2022-11-20T04:36:45.320Z,97002.72
2022-11-20T04:39:15.279Z,96994.77
2022-11-20T04:41:43.538Z,96978.34
2022-11-20T04:44:11.813Z,96977.98
2022-11-20T04:46:40.809Z,96992.95
2022-11-20T04:49:09.441Z,96972.24
2022-11-20T04:51:37.365Z,96973.23
2022-11-20T04:54:05.342Z,96987.54
2022-11-20T04:56:33.304Z,96980.53
2022-11-20T04:59:02.291Z,96990.06
2022-11-20T05:01:30.600Z,96996.78
2022-11-20T05:03:58.470Z,96987.17
2022-11-20T05:06:26.507Z,96999.44
2022-11-20T05:08:54.372Z,97014.70
2022-11-20T05:11:22.754Z,97013.30
2022-11-20T05:13:51.852Z,97004.85
2022-11-20T05:16:20.946Z,96987.88
2022-11-20T05:18:49.334Z,96989.52
2022-11-20T05:21:17.812Z,96989.84
2022-11-20T05:23:46.292Z,96986.73
2022-11-20T05:26:15.894Z,96992.20
2022-11-20T05:28:44.274Z,96996.77
2022-11-20T05:31:16.337Z,96994.21
2022-11-20T05:33:44.923Z,96989.02
2022-11-20T05:36:13.943Z,96985.68
2022-11-20T05:38:42.607Z,96990.16
2022-11-20T05:41:14.686Z,96999.16
2022-11-20T05:43:43.455Z,97000.40
2022-11-20T05:46:12.369Z,96994.47
2022-11-20T05:48:41.237Z,96991.83
2022-11-20T05:51:10.033Z,96989.98
2022-11-20T05:53:37.917Z,96991.58
2022-11-20T05:56:07.325Z,96998.17
2022-11-20T05:58:35.470Z,97001.87
2022-11-20T06:01:23.277Z,97008.98
2022-11-20T06:03:52.124Z,97015.36
2022-11-20T06:06:20.806Z,97015.41
2022-11-20T06:08:48.844Z,97022.45
2022-11-20T06:11:17.546Z,97029.85
2022-11-20T06:13:45.917Z,97034.30
2022-11-20T06:16:15.095Z,97037.86
2022-11-20T06:18:42.987Z,97039.50
2022-11-20T06:21:15.462Z,97041.06
2022-11-20T06:23:43.956Z,97037.98
2022-11-20T06:26:15.801Z,97025.55
2022-11-20T06:28:43.976Z,97019.25
2022-11-20T06:31:12.915Z,97012.44
2022-11-20T06:33:40.949Z,97010.63
2022-11-20T06:36:10.980Z,96998.80
2022-11-20T06:38:39.623Z,96991.95
2022-11-20T06:41:08.740Z,96995.56
2022-11-20T06:43:36.603Z,96994.41
2022-11-20T06:46:04.575Z,96994.60
2022-11-20T06:48:32.958Z,96995.92
2022-11-20T06:51:01.026Z,96998.17
2022-11-20T06:53:28.891Z,97007.68
2022-11-20T06:55:58.909Z,97014.48
2022-11-20T06:58:30.884Z,97020.36
2022-11-20T07:00:59.537Z,97014.67
2022-11-20T07:03:27.945Z,97013.82
2022-11-20T07:05:57.244Z,97024.99
2022-11-20T07:08:25.729Z,97035.20
2022-11-20T07:10:53.531Z,97044.65
2022-11-20T07:13:21.351Z,97050.20
2022-11-20T07:15:49.175Z,97042.59
2022-11-20T07:18:16.958Z,97045.96
2022-11-20T07:20:44.850Z,97051.10
2022-11-20T07:23:12.819Z,97054.21
2022-11-20T07:25:40.693Z,97053.06
2022-11-20T07:28:08.665Z,97057.89
2022-11-20T07:30:36.525Z,97054.63
2022-11-20T07:33:04.706Z,97054.63
2022-11-20T07:35:32.569Z,97042.56
2022-11-20T07:38:00.517Z,97034.70
2022-11-20T07:40:29.222Z,97034.39
2022-11-20T07:42:57.504Z,97030.38
2022-11-20T07:45:25.466Z,97024.69
2022-11-20T07:47:53.333Z,97020.84
2022-11-20T07:50:21.211Z,97015.64
2022-11-20T07:52:49.170Z,97015.96
2022-11-20T07:55:17.452Z,97016.44
2022-11-20T07:57:45.319Z,97026.95
2022-11-20T08:00:13.889Z,97027.67
2022-11-20T08:02:42.276Z,97018.08
2022-11-20T08:05:11.197Z,97014.79
2022-11-20T08:07:40.087Z,97022.22
2022-11-20T08:10:09.100Z,97028.96
2022-11-20T08:12:55.970Z,97031.20
2022-11-20T08:15:23.834Z,97034.66
2022-11-20T08:18:08.620Z,97041.15
2022-11-20T08:20:40.250Z,97051.39
2022-11-20T08:23:09.046Z,97060.11
2022-11-20T08:25:37.835Z,97061.43
2022-11-20T08:28:15.877Z,97058.09
2022-11-20T08:30:48.636Z,97052.55
2022-11-20T08:33:18.517Z,97056.10
2022-11-20T08:35:46.430Z,97054.98
2022-11-20T08:38:14.283Z,97056.39
2022-11-20T08:40:42.041Z,97059.88
2022-11-20T08:43:09.896Z,97060.58
2022-11-20T08:45:37.734Z,97063.19
2022-11-20T08:48:05.820Z,97061.09
2022-11-20T08:50:34.114Z,97060.73
2022-11-20T08:53:06.016Z,97074.61
2022-11-20T08:55:36.510Z,97070.48
2022-11-20T08:58:05.345Z,97066.55
2022-11-20T09:00:33.731Z,97062.79
2022-11-20T09:03:02.476Z,97061.13
2022-11-20T09:05:30.764Z,97065.20
2022-11-20T09:07:58.907Z,97071.24
2022-11-20T09:10:27.263Z,97065.67
2022-11-20T09:12:56.477Z,97064.19
2022-11-20T09:15:25.276Z,97068.34
2022-11-20T09:17:57.513Z,97075.13
2022-11-20T09:20:26.032Z,97079.62
2022-11-20T09:22:53.999Z,97080.66
2022-11-20T09:25:21.939Z,97087.63
2022-11-20T09:27:55.572Z,97093.56
2022-11-20T09:30:23.434Z,97089.36
2022-11-20T09:32:51.408Z,97084.63
2022-11-20T09:35:19.684Z,97084.65
2022-11-20T09:37:47.547Z,97084.84
2022-11-20T09:40:23.194Z,97079.41
2022-11-20T09:42:57.519Z,97078.46
2022-11-20T09:45:44.018Z,97080.33
2022-11-20T09:48:11.783Z,97077.11
2022-11-20T09:50:48.897Z,97076.77
2022-11-20T09:53:19.498Z,97073.45
2022-11-20T09:55:47.863Z,97071.24
2022-11-20T09:58:36.847Z,97072.16
2022-11-20T10:01:11.521Z,97073.89
2022-11-20T10:03:51.520Z,97077.38
2022-11-20T10:06:22.769Z,97080.61
2022-11-20T10:08:56.267Z,97077.89
2022-11-20T10:11:42.969Z,97077.20
2022-11-20T10:14:10.939Z,97062.90
2022-11-20T10:16:47.924Z,97060.16
2022-11-20T10:19:15.793Z,97057.20
2022-11-20T10:21:56.053Z,97053.30
2022-11-20T10:24:42.518Z,97054.70
2022-11-20T10:27:25.775Z,97056.48
2022-11-20T10:30:13.513Z,97057.48
2022-11-20T10:32:48.757Z,97060.15
2022-11-20T10:35:29.839Z,97060.45
2022-11-20T10:37:59.718Z,97061.27
2022-11-20T10:40:39.794Z,97065.97
2022-11-20T10:43:10.730Z,97063.15
2022-11-20T10:45:45.153Z,97057.91
2022-11-20T10:48:13.233Z,97056.36
2022-11-20T10:50:48.269Z,97054.30
2022-11-20T10:53:42.658Z,97057.37
2022-11-20T10:56:18.000Z,97047.95
2022-11-20T10:59:00.917Z,97047.30
2022-11-20T11:01:29.002Z,97050.31
2022-11-20T11:03:58.384Z,97059.06
2022-11-20T11:06:26.459Z,97064.89
2022-11-20T11:08:56.395Z,97071.73
2022-11-20T11:11:25.571Z,97076.31
2022-11-20T11:13:53.545Z,97078.59
2022-11-20T11:16:23.260Z,97074.55
2022-11-20T11:18:51.633Z,97071.97
2022-11-20T11:21:24.594Z,97068.01
2022-11-20T11:24:19.721Z,97060.72
2022-11-20T11:27:05.616Z,97059.94
2022-11-20T11:29:34.405Z,97049.30
2022-11-20T11:32:10.056Z,97043.69
2022-11-20T11:34:38.149Z,97042.36
2022-11-20T11:37:12.139Z,97036.79
2022-11-20T11:39:42.563Z,97036.73
2022-11-20T11:42:14.001Z,97044.09
2022-11-20T11:45:04.309Z,97046.25
2022-11-20T11:47:34.016Z,97049.13
2022-11-20T11:50:22.362Z,97045.00
2022-11-20T11:52:56.449Z,97046.59
2022-11-20T11:55:27.310Z,97051.07
2022-11-20T11:57:58.249Z,97051.13
2022-11-20T12:00:27.038Z,97050.16
2022-11-20T12:03:01.769Z,97052.94
2022-11-20T12:05:37.721Z,97048.91
2022-11-20T12:08:10.991Z,97042.44
2022-11-20T12:10:46.261Z,97043.18
2022-11-20T12:13:32.175Z,97039.80
2022-11-20T12:16:00.831Z,97040.05
2022-11-20T12:18:29.522Z,97036.33
2022-11-20T12:21:00.663Z,97029.55
2022-11-20T12:23:28.838Z,97025.14
2022-11-20T12:25:58.445Z,97023.68
2022-11-20T12:28:43.320Z,97025.45
2022-11-20T12:31:17.712Z,97026.77
2022-11-20T12:34:04.699Z,97029.66
2022-11-20T12:36:59.035Z,97022.69
2022-11-20T12:39:36.021Z,97023.49
2022-11-20T12:42:28.917Z,97030.16
2022-11-20T12:45:15.504Z,97041.02
2022-11-20T12:48:02.184Z,97044.98
2022-11-20T12:51:13.432Z,97050.82
2022-11-20T12:53:55.569Z,97051.02
2022-11-20T12:56:29.688Z,97041.30
2022-11-20T12:58:57.554Z,97042.80
2022-11-20T13:01:41.005Z,97045.75
2022-11-20T13:04:27.854Z,97045.44
2022-11-20T13:06:56.098Z,97035.73
2022-11-20T13:09:24.967Z,97034.09
2022-11-20T13:11:58.663Z,97033.06
2022-11-20T13:14:27.050Z,97030.84
2022-11-20T13:17:10.267Z,97034.15
2022-11-20T13:19:38.649Z,97033.81
2022-11-20T13:22:07.032Z,97029.30
2022-11-20T13:24:34.780Z,97027.83
2022-11-20T13:27:08.813Z,97031.53
2022-11-20T13:29:38.013Z,97036.15
2022-11-20T13:32:08.303Z,97034.06
2022-11-20T13:34:37.224Z,97034.27
2022-11-20T13:37:05.084Z,97032.40
2022-11-20T13:39:37.052Z,97033.67
2022-11-20T13:42:13.614Z,97035.77
2022-11-20T13:45:01.643Z,97031.93
2022-11-20T13:47:30.143Z,97035.12
2022-11-20T13:50:00.455Z,97042.23
2022-11-20T13:52:28.233Z,97049.03
2022-11-20T13:55:05.207Z,97052.88
2022-11-20T13:57:55.499Z,97057.55
2022-11-20T14:00:24.423Z,97064.91
2022-11-20T14:03:01.685Z,97068.85
2022-11-20T14:05:31.888Z,97077.35
2022-11-20T14:08:00.011Z,97079.87
2022-11-20T14:10:32.016Z,97079.23
2022-11-20T14:13:11.078Z,97084.65
2022-11-20T14:15:44.827Z,97086.34
2022-11-20T14:18:14.925Z,97088.09
2022-11-20T14:20:44.193Z,97084.94
2022-11-20T14:23:12.366Z,97089.70
2022-11-20T14:25:43.716Z,97088.56
2022-11-20T14:28:12.920Z,97079.09
2022-11-20T14:30:45.799Z,97077.11
2022-11-20T14:33:15.099Z,97074.85
2022-11-20T14:35:47.377Z,97076.21
2022-11-20T14:38:17.186Z,97081.44
2022-11-20T14:40:45.259Z,97067.52
2022-11-20T14:43:19.374Z,97069.44
2022-11-20T14:45:50.103Z,97065.36
2022-11-20T14:48:17.975Z,97065.06
2022-11-20T14:50:45.843Z,97065.48
2022-11-20T14:53:23.015Z,97064.99
2022-11-20T14:55:58.808Z,97074.52
2022-11-20T14:58:29.162Z,97075.36
2022-11-20T15:01:01.421Z,97070.10
2022-11-20T15:03:36.820Z,97062.62
2022-11-20T15:06:05.505Z,97062.55
2022-11-20T15:08:33.775Z,97062.02
2022-11-20T15:11:01.639Z,97057.34
2022-11-20T15:13:39.856Z,97056.59
2022-11-20T15:16:24.408Z,97058.38
2022-11-20T15:18:52.796Z,97057.30
2022-11-20T15:21:24.045Z,97061.10
2022-11-20T15:23:52.108Z,97061.58
2022-11-20T15:26:24.384Z,97060.46
2022-11-20T15:28:53.068Z,97066.03
2022-11-20T15:31:22.267Z,97069.27
2022-11-20T15:33:50.437Z,97066.13
2022-11-20T15:36:18.412Z,97074.16
2022-11-20T15:38:46.375Z,97072.90
2022-11-20T15:41:14.346Z,97072.41
2022-11-20T15:43:42.319Z,97075.84
2022-11-20T15:46:12.737Z,97079.73
2022-11-20T15:48:47.636Z,97077.08
2022-11-20T15:51:30.800Z,97071.63
2022-11-20T15:53:59.214Z,97080.52
2022-11-20T15:56:27.358Z,97088.21
2022-11-20T15:58:55.331Z,97088.35
2022-11-20T16:01:23.497Z,97096.38
2022-11-20T16:03:51.568Z,97094.95
2022-11-20T16:06:19.639Z,97085.79
2022-11-20T16:08:47.504Z,97079.06
2022-11-20T16:11:16.433Z,97070.94
2022-11-20T16:14:02.804Z,97067.94
2022-11-20T16:16:32.263Z,97068.50
2022-11-20T16:19:01.089Z,97074.10
2022-11-20T16:21:32.229Z,97083.15
2022-11-20T16:24:05.120Z,97086.17
2022-11-20T16:26:33.407Z,97086.96
2022-11-20T16:29:02.083Z,97089.14
2022-11-20T16:31:30.239Z,97090.06
2022-11-20T16:33:59.456Z,97082.89
2022-11-20T16:36:28.754Z,97081.23
2022-11-20T16:39:00.719Z,97081.58
2022-11-20T16:41:30.761Z,97074.83
2022-11-20T16:44:00.146Z,97068.30
2022-11-20T16:46:31.589Z,97074.08
2022-11-20T16:49:00.891Z,97075.05
2022-11-20T16:51:29.884Z,97071.63
2022-11-20T16:54:01.746Z,97070.75
2022-11-20T16:56:29.631Z,97065.95
2022-11-20T16:58:58.608Z,97060.94
2022-11-20T17:01:28.953Z,97062.34
2022-11-20T17:03:58.410Z,97063.80
2022-11-20T17:06:28.044Z,97063.90
2022-11-20T17:08:56.408Z,97063.29
2022-11-20T17:11:24.799Z,97065.73
2022-11-20T17:13:53.079Z,97070.98
2022-11-20T17:16:23.098Z,97075.92
2022-11-20T17:18:51.203Z,97078.92
2022-11-20T17:21:19.352Z,97075.05
2022-11-20T17:23:47.721Z,97074.90
2022-11-20T17:26:16.830Z,97078.59
2022-11-20T17:28:46.327Z,97086.55
2022-11-20T17:31:15.932Z,97094.33
2022-11-20T17:33:45.126Z,97093.70
2022-11-20T17:36:14.591Z,97093.55
2022-11-20T17:38:43.002Z,97092.16
2022-11-20T17:41:12.191Z,97091.69
2022-11-20T17:43:40.385Z,97097.86
2022-11-20T17:46:09.866Z,97103.17
2022-11-20T17:48:38.367Z,97100.80
2022-11-20T17:51:06.544Z,97104.20
2022-11-20T17:53:35.642Z,97104.78
2022-11-20T17:56:22.455Z,97102.52
2022-11-20T17:58:50.322Z,97099.67
2022-11-20T18:01:18.574Z,97101.95
2022-11-20T18:03:47.399Z,97109.17
2022-11-20T18:06:16.887Z,97111.17
2022-11-20T18:08:44.949Z,97113.70
2022-11-20T18:11:14.553Z,97114.02
2022-11-20T18:14:01.587Z,97110.63
2022-11-20T18:16:30.483Z,97111.06
2022-11-20T18:18:59.585Z,97113.94
2022-11-20T18:21:28.344Z,97122.73
2022-11-20T18:23:56.438Z,97123.68
2022-11-20T18:26:25.536Z,97119.77
2022-11-20T18:28:53.812Z,97112.34
2022-11-20T18:31:22.287Z,97108.77
2022-11-20T18:33:52.618Z,97106.48
2022-11-20T18:36:25.497Z,97105.73
2022-11-20T18:38:56.238Z,97111.77
2022-11-20T18:41:44.477Z,97115.92
2022-11-20T18:44:32.413Z,97120.40
2022-11-20T18:47:00.484Z,97124.84
2022-11-20T18:49:28.459Z,97127.20
2022-11-20T18:51:56.526Z,97127.34
2022-11-20T18:54:24.954Z,97128.27
2022-11-20T18:56:53.490Z,97125.77
2022-11-20T18:59:21.945Z,97120.45
2022-11-20T19:01:49.989Z,97118.63
2022-11-20T19:04:18.333Z,97120.61
2022-11-20T19:06:49.558Z,97117.77
2022-11-20T19:09:17.541Z,97117.83
2022-11-20T19:11:45.609Z,97118.59
2022-11-20T19:14:13.581Z,97116.80
2022-11-20T19:16:43.391Z,97115.28
2022-11-20T19:19:11.365Z,97113.70
2022-11-20T19:21:39.433Z,97117.66
2022-11-20T19:24:07.415Z,97120.33
2022-11-20T19:26:36.290Z,97120.88
2022-11-20T19:29:05.800Z,97118.48
2022-11-20T19:31:33.751Z,97119.35
2022-11-20T19:34:03.069Z,97125.27
2022-11-20T19:36:32.779Z,97123.59
2022-11-20T19:39:01.149Z,97117.88
2022-11-20T19:41:31.612Z,97114.25
2022-11-20T19:44:00.476Z,97110.46
2022-11-20T19:46:29.474Z,97111.66
2022-11-20T19:48:57.950Z,97110.27
2022-11-20T19:51:27.129Z,97110.43
2022-11-20T19:53:55.528Z,97107.67
2022-11-20T19:56:24.017Z,97108.34
2022-11-20T19:58:53.517Z,97110.20
2022-11-20T20:01:23.138Z,97108.80
2022-11-20T20:03:51.709Z,97107.35
2022-11-20T20:06:22.477Z,97110.23
2022-11-20T20:08:57.887Z,97115.65
2022-11-20T20:11:26.984Z,97109.05
2022-11-20T20:13:56.279Z,97108.85
2022-11-20T20:16:25.163Z,97107.44
2022-11-20T20:19:01.361Z,97110.88
2022-11-20T20:21:30.760Z,97109.16
2022-11-20T20:23:59.146Z,97108.08
2022-11-20T20:26:28.215Z,97109.27
2022-11-20T20:28:56.699Z,97107.35
2022-11-20T20:31:26.098Z,97103.00
2022-11-20T20:33:53.966Z,97102.05
2022-11-20T20:36:23.265Z,97109.89
2022-11-20T20:38:54.971Z,97111.46
2022-11-20T20:41:25.093Z,97113.61
2022-11-20T20:44:12.056Z,97119.69
2022-11-20T20:46:40.234Z,97116.49
2022-11-20T20:49:08.636Z,97107.27
2022-11-20T20:51:36.784Z,97102.25
2022-11-20T20:54:05.062Z,97101.46
2022-11-20T20:56:33.033Z,97107.52
2022-11-20T20:59:00.879Z,97110.81
2022-11-20T21:01:29.690Z,97106.36
2022-11-20T21:03:58.131Z,97105.35
2022-11-20T21:06:26.956Z,97104.67
2022-11-20T21:08:57.482Z,97099.33
2022-11-20T21:11:25.862Z,97090.96
2022-11-20T21:13:53.942Z,97090.05
2022-11-20T21:16:25.288Z,97087.39
2022-11-20T21:18:53.148Z,97089.48
2022-11-20T21:21:39.967Z,97091.47
2022-11-20T21:24:07.936Z,97089.77
2022-11-20T21:26:35.799Z,97096.42
2022-11-20T21:29:03.584Z,97103.40
2022-11-20T21:31:31.426Z,97100.16
2022-11-20T21:33:59.606Z,97095.32
2022-11-20T21:36:28.901Z,97092.84
2022-11-20T21:38:57.593Z,97090.08
2022-11-20T21:41:27.406Z,97082.16
2022-11-20T21:44:28.915Z,97074.92
2022-11-20T21:46:44.460Z,97078.41
2022-11-20T21:49:12.711Z,97082.31
2022-11-20T21:51:40.782Z,97079.98
2022-11-20T21:54:10.678Z,97074.81
2022-11-20T21:56:38.871Z,97069.80
2022-11-20T21:59:06.858Z,97070.77
2022-11-20T22:01:34.968Z,97077.77
2022-11-20T22:04:02.988Z,97071.39
2022-11-20T22:06:34.857Z,97058.76
2022-11-20T22:09:02.983Z,97049.46
2022-11-20T22:11:30.898Z,97048.17
2022-11-20T22:14:17.600Z,97043.78
2022-11-20T22:16:45.368Z,97039.93
2022-11-20T22:19:16.035Z,97044.38
2022-11-20T22:21:43.962Z,97044.89
2022-11-20T22:24:12.543Z,97044.34
2022-11-20T22:26:40.866Z,97048.73
2022-11-20T22:29:14.227Z,97057.75
2022-11-20T22:31:42.597Z,97059.94
2022-11-20T22:34:12.296Z,97052.87
2022-11-20T22:36:40.653Z,97044.30
2022-11-20T22:39:08.859Z,97034.16
2022-11-20T22:41:36.830Z,97024.68
2022-11-20T22:44:06.338Z,97013.67
2022-11-20T22:46:35.434Z,97014.58
2022-11-20T22:49:04.543Z,97013.09
2022-11-20T22:51:33.522Z,97002.42
2022-11-20T22:54:03.451Z,96999.84
2022-11-20T22:56:31.406Z,97001.40
2022-11-20T22:58:59.474Z,96998.45
2022-11-20T23:01:28.381Z,96997.75
2022-11-20T23:03:57.473Z,96998.16
2022-11-20T23:06:25.849Z,96995.59
2022-11-20T23:08:53.681Z,96988.27
2022-11-20T23:11:26.185Z,96981.35
2022-11-20T23:14:03.983Z,96973.76
2022-11-20T23:16:32.624Z,96968.05
2022-11-20T23:19:01.972Z,96958.91
2022-11-20T23:21:30.164Z,96953.89
2022-11-20T23:23:58.523Z,96952.43
2022-11-20T23:26:28.233Z,96955.27
2022-11-20T23:28:57.923Z,96947.36
2022-11-20T23:31:26.842Z,96944.35
2022-11-20T23:33:55.009Z,96936.46
2022-11-20T23:36:22.980Z,96940.77
2022-11-20T23:38:50.851Z,96941.52
2022-11-20T23:41:18.718Z,96938.81
2022-11-20T23:43:46.684Z,96933.00
2022-11-20T23:46:16.733Z,96937.77
2022-11-20T23:48:45.674Z,96933.15
2022-11-20T23:51:13.900Z,96925.61
2022-11-20T23:53:42.095Z,96926.56
2022-11-20T23:56:10.603Z,96924.63
2022-11-20T23:58:38.794Z,96915.69
